sensor_id;sensor_type;location;lat;lon;timestamp;pressure;altitude;pressure_sealevel;temperature;humidity
17260;BME280;8746;49.230;9.220;2023-06-22T00:01:24;99882.81;;;19.76;100.00
17260;BME280;8746;49.230;9.220;2023-06-22T00:03:50;99880.50;;;19.83;100.00
17260;BME280;8746;49.230;9.220;2023-06-22T00:06:15;99884.78;;;19.85;100.00
17260;BME280;8746;49.230;9.220;2023-06-22T00:08:41;99887.59;;;19.84;100.00
17260;BME280;8746;49.230;9.220;2023-06-22T00:11:06;99887.06;;;19.79;100.00
17260;BME280;8746;49.230;9.220;2023-06-22T00:13:31;99883.28;;;19.81;100.00
17260;BME280;8746;49.230;9.220;2023-06-22T00:15:57;99875.88;;;19.74;100.00
17260;BME280;8746;49.230;9.220;2023-06-22T00:18:22;99872.59;;;19.70;100.00
17260;BME280;8746;49.230;9.220;2023-06-22T00:20:53;99875.63;;;19.65;100.00
17260;BME280;8746;49.230;9.220;2023-06-22T00:23:22;99873.72;;;19.67;100.00
17260;BME280;8746;49.230;9.220;2023-06-22T00:25:49;99868.09;;;19.59;100.00
17260;BME280;8746;49.230;9.220;2023-06-22T00:28:15;99871.50;;;19.50;100.00
17260;BME280;8746;49.230;9.220;2023-06-22T00:30:40;99872.22;;;19.52;100.00
17260;BME280;8746;49.230;9.220;2023-06-22T00:33:05;99864.69;;;19.57;100.00
17260;BME280;8746;49.230;9.220;2023-06-22T00:35:32;99868.72;;;19.63;100.00
17260;BME280;8746;49.230;9.220;2023-06-22T00:37:59;99871.72;;;19.69;100.00
17260;BME280;8746;49.230;9.220;2023-06-22T00:40:30;99867.13;;;19.72;100.00
17260;BME280;8746;49.230;9.220;2023-06-22T00:42:56;99872.75;;;19.68;100.00
17260;BME280;8746;49.230;9.220;2023-06-22T00:45:25;99877.47;;;19.65;100.00
17260;BME280;8746;49.230;9.220;2023-06-22T00:47:58;99873.09;;;19.64;100.00
17260;BME280;8746;49.230;9.220;2023-06-22T00:50:25;99876.34;;;19.56;100.00
17260;BME280;8746;49.230;9.220;2023-06-22T00:52:53;99883.19;;;19.49;100.00
17260;BME280;8746;49.230;9.220;2023-06-22T00:55:20;99892.66;;;19.53;100.00
17260;BME280;8746;49.230;9.220;2023-06-22T00:57:46;99899.81;;;19.52;100.00
17260;BME280;8746;49.230;9.220;2023-06-22T01:00:13;99900.94;;;19.50;100.00
17260;BME280;8746;49.230;9.220;2023-06-22T01:02:40;99913.69;;;19.46;100.00
17260;BME280;8746;49.230;9.220;2023-06-22T01:05:06;99931.34;;;19.49;100.00
17260;BME280;8746;49.230;9.220;2023-06-22T01:07:41;99975.38;;;19.56;100.00
17260;BME280;8746;49.230;9.220;2023-06-22T01:10:25;100070.09;;;19.53;100.00
17260;BME280;8746;49.230;9.220;2023-06-22T01:12:55;100140.94;;;19.61;100.00
17260;BME280;8746;49.230;9.220;2023-06-22T01:16:03;100149.69;;;19.63;100.00
17260;BME280;8746;49.230;9.220;2023-06-22T01:18:30;100062.97;;;19.65;100.00
17260;BME280;8746;49.230;9.220;2023-06-22T01:20:56;100027.44;;;19.63;100.00
17260;BME280;8746;49.230;9.220;2023-06-22T01:29:04;99978.09;;;18.96;100.00
17260;BME280;8746;49.230;9.220;2023-06-22T01:31:31;99971.97;;;18.83;100.00
17260;BME280;8746;49.230;9.220;2023-06-22T01:33:59;99981.50;;;18.74;100.00
17260;BME280;8746;49.230;9.220;2023-06-22T01:36:26;99951.38;;;18.72;100.00
17260;BME280;8746;49.230;9.220;2023-06-22T01:38:52;99937.72;;;18.64;100.00
17260;BME280;8746;49.230;9.220;2023-06-22T01:41:19;99934.09;;;18.65;100.00
17260;BME280;8746;49.230;9.220;2023-06-22T01:43:45;99928.84;;;18.63;100.00
17260;BME280;8746;49.230;9.220;2023-06-22T01:46:11;99928.13;;;18.61;100.00
17260;BME280;8746;49.230;9.220;2023-06-22T01:48:38;99913.38;;;18.55;100.00
17260;BME280;8746;49.230;9.220;2023-06-22T01:51:04;99909.13;;;18.53;100.00
17260;BME280;8746;49.230;9.220;2023-06-22T01:53:29;99900.28;;;18.52;100.00
17260;BME280;8746;49.230;9.220;2023-06-22T01:55:56;99896.28;;;18.58;100.00
17260;BME280;8746;49.230;9.220;2023-06-22T01:58:25;99904.78;;;18.63;100.00
17260;BME280;8746;49.230;9.220;2023-06-22T02:01:10;99912.88;;;18.74;100.00
17260;BME280;8746;49.230;9.220;2023-06-22T02:03:40;99909.91;;;18.66;100.00
17260;BME280;8746;49.230;9.220;2023-06-22T02:06:11;99898.59;;;18.63;100.00
17260;BME280;8746;49.230;9.220;2023-06-22T02:08:53;99907.59;;;18.62;100.00
17260;BME280;8746;49.230;9.220;2023-06-22T02:11:21;99909.16;;;18.64;100.00
17260;BME280;8746;49.230;9.220;2023-06-22T02:13:47;99902.81;;;18.78;100.00
17260;BME280;8746;49.230;9.220;2023-06-22T02:16:14;99922.03;;;18.83;100.00
17260;BME280;8746;49.230;9.220;2023-06-22T02:18:48;99924.44;;;18.86;100.00
17260;BME280;8746;49.230;9.220;2023-06-22T02:21:16;99924.44;;;18.86;100.00
17260;BME280;8746;49.230;9.220;2023-06-22T02:23:41;99920.44;;;18.81;100.00
17260;BME280;8746;49.230;9.220;2023-06-22T02:26:06;99919.94;;;18.76;100.00
17260;BME280;8746;49.230;9.220;2023-06-22T02:28:32;99920.66;;;18.78;100.00
17260;BME280;8746;49.230;9.220;2023-06-22T02:30:57;99908.84;;;18.69;100.00
17260;BME280;8746;49.230;9.220;2023-06-22T02:33:22;99916.22;;;18.65;100.00
17260;BME280;8746;49.230;9.220;2023-06-22T02:35:48;99915.44;;;18.76;100.00
17260;BME280;8746;49.230;9.220;2023-06-22T02:38:14;99909.72;;;18.69;100.00
17260;BME280;8746;49.230;9.220;2023-06-22T02:40:40;99906.44;;;18.77;100.00
17260;BME280;8746;49.230;9.220;2023-06-22T02:43:05;99917.97;;;18.78;100.00
17260;BME280;8746;49.230;9.220;2023-06-22T02:45:31;99916.50;;;18.73;100.00
17260;BME280;8746;49.230;9.220;2023-06-22T02:47:56;99906.50;;;18.64;100.00
17260;BME280;8746;49.230;9.220;2023-06-22T02:50:22;99910.88;;;18.65;100.00
17260;BME280;8746;49.230;9.220;2023-06-22T02:52:47;99904.06;;;18.61;100.00
17260;BME280;8746;49.230;9.220;2023-06-22T02:55:12;99898.56;;;18.51;100.00
17260;BME280;8746;49.230;9.220;2023-06-22T02:57:37;99897.66;;;18.39;100.00
17260;BME280;8746;49.230;9.220;2023-06-22T03:00:10;99895.72;;;18.41;100.00
17260;BME280;8746;49.230;9.220;2023-06-22T03:02:45;99899.34;;;18.40;100.00
17260;BME280;8746;49.230;9.220;2023-06-22T03:05:11;99894.00;;;18.40;100.00
17260;BME280;8746;49.230;9.220;2023-06-22T03:07:40;99886.97;;;18.39;100.00
17260;BME280;8746;49.230;9.220;2023-06-22T03:10:06;99883.53;;;18.37;100.00
17260;BME280;8746;49.230;9.220;2023-06-22T03:12:31;99886.78;;;18.30;100.00
17260;BME280;8746;49.230;9.220;2023-06-22T03:14:56;99890.72;;;18.37;100.00
17260;BME280;8746;49.230;9.220;2023-06-22T03:17:23;99890.84;;;18.35;100.00
17260;BME280;8746;49.230;9.220;2023-06-22T03:19:48;99893.28;;;18.38;100.00
17260;BME280;8746;49.230;9.220;2023-06-22T03:22:16;99898.06;;;18.46;100.00
17260;BME280;8746;49.230;9.220;2023-06-22T03:24:41;99890.88;;;18.47;100.00
17260;BME280;8746;49.230;9.220;2023-06-22T03:27:06;99881.66;;;18.51;100.00
17260;BME280;8746;49.230;9.220;2023-06-22T03:29:32;99880.31;;;18.45;100.00
17260;BME280;8746;49.230;9.220;2023-06-22T03:31:57;99878.44;;;18.58;100.00
17260;BME280;8746;49.230;9.220;2023-06-22T03:34:22;99881.97;;;18.59;100.00
17260;BME280;8746;49.230;9.220;2023-06-22T03:36:48;99884.50;;;18.61;100.00
17260;BME280;8746;49.230;9.220;2023-06-22T03:39:13;99869.34;;;18.61;100.00
17260;BME280;8746;49.230;9.220;2023-06-22T03:41:38;99874.44;;;18.64;100.00
17260;BME280;8746;49.230;9.220;2023-06-22T03:44:04;99876.03;;;18.67;100.00
17260;BME280;8746;49.230;9.220;2023-06-22T03:46:29;99874.44;;;18.64;100.00
17260;BME280;8746;49.230;9.220;2023-06-22T03:48:54;99875.41;;;18.63;100.00
17260;BME280;8746;49.230;9.220;2023-06-22T03:51:20;99874.44;;;18.64;100.00
17260;BME280;8746;49.230;9.220;2023-06-22T03:53:45;99871.06;;;18.62;100.00
17260;BME280;8746;49.230;9.220;2023-06-22T03:56:10;99876.41;;;18.62;100.00
17260;BME280;8746;49.230;9.220;2023-06-22T03:58:36;99880.53;;;18.66;100.00
17260;BME280;8746;49.230;9.220;2023-06-22T04:01:07;99874.44;;;18.64;100.00
17260;BME280;8746;49.230;9.220;2023-06-22T04:03:36;99879.28;;;18.59;100.00
17260;BME280;8746;49.230;9.220;2023-06-22T04:06:02;99879.78;;;18.64;100.00
17260;BME280;8746;49.230;9.220;2023-06-22T04:08:27;99870.59;;;18.68;100.00
17260;BME280;8746;49.230;9.220;2023-06-22T04:10:52;99873.72;;;18.62;100.00
17260;BME280;8746;49.230;9.220;2023-06-22T04:13:18;99871.28;;;18.59;100.00
17260;BME280;8746;49.230;9.220;2023-06-22T04:15:44;99877.97;;;18.65;100.00
17260;BME280;8746;49.230;9.220;2023-06-22T04:18:09;99878.81;;;18.65;100.00
17260;BME280;8746;49.230;9.220;2023-06-22T04:20:35;99886.63;;;18.68;100.00
17260;BME280;8746;49.230;9.220;2023-06-22T04:23:00;99882.75;;;18.72;100.00
17260;BME280;8746;49.230;9.220;2023-06-22T04:25:25;99867.19;;;18.78;100.00
17260;BME280;8746;49.230;9.220;2023-06-22T04:27:51;99861.91;;;18.89;100.00
17260;BME280;8746;49.230;9.220;2023-06-22T04:30:16;99858.19;;;18.92;100.00
17260;BME280;8746;49.230;9.220;2023-06-22T04:32:42;99861.03;;;18.88;100.00
17260;BME280;8746;49.230;9.220;2023-06-22T04:35:08;99856.97;;;18.96;100.00
17260;BME280;8746;49.230;9.220;2023-06-22T04:37:34;99860.84;;;18.92;100.00
17260;BME280;8746;49.230;9.220;2023-06-22T04:39:59;99861.50;;;19.06;100.00
17260;BME280;8746;49.230;9.220;2023-06-22T04:42:28;99860.41;;;19.09;100.00
17260;BME280;8746;49.230;9.220;2023-06-22T04:44:53;99864.53;;;19.13;100.00
17260;BME280;8746;49.230;9.220;2023-06-22T04:47:19;99855.81;;;19.22;100.00
17260;BME280;8746;49.230;9.220;2023-06-22T04:49:44;99848.53;;;19.25;100.00
17260;BME280;8746;49.230;9.220;2023-06-22T04:52:11;99842.56;;;19.32;100.00
17260;BME280;8746;49.230;9.220;2023-06-22T04:54:38;99841.72;;;19.32;100.00
17260;BME280;8746;49.230;9.220;2023-06-22T04:57:07;99836.59;;;19.29;100.00
17260;BME280;8746;49.230;9.220;2023-06-22T04:59:37;99840.00;;;19.42;100.00
17260;BME280;8746;49.230;9.220;2023-06-22T05:02:04;99835.75;;;19.51;100.00
17260;BME280;8746;49.230;9.220;2023-06-22T05:04:31;99842.69;;;19.53;100.00
17260;BME280;8746;49.230;9.220;2023-06-22T05:06:58;99837.56;;;19.62;100.00
17260;BME280;8746;49.230;9.220;2023-06-22T05:09:24;99837.94;;;19.68;100.00
17260;BME280;8746;49.230;9.220;2023-06-22T05:11:52;99836.72;;;19.73;100.00
17260;BME280;8746;49.230;9.220;2023-06-22T05:14:18;99833.06;;;19.85;100.00
17260;BME280;8746;49.230;9.220;2023-06-22T05:16:44;99840.59;;;19.91;100.00
17260;BME280;8746;49.230;9.220;2023-06-22T05:19:10;99835.22;;;20.02;100.00
17260;BME280;8746;49.230;9.220;2023-06-22T05:21:35;99836.78;;;20.05;100.00
17260;BME280;8746;49.230;9.220;2023-06-22T05:24:01;99827.03;;;20.15;100.00
17260;BME280;8746;49.230;9.220;2023-06-22T05:26:29;99825.19;;;20.16;100.00
17260;BME280;8746;49.230;9.220;2023-06-22T05:28:54;99828.56;;;20.29;100.00
17260;BME280;8746;49.230;9.220;2023-06-22T05:31:20;99818.34;;;20.34;100.00
17260;BME280;8746;49.230;9.220;2023-06-22T05:33:46;99810.16;;;20.36;100.00
17260;BME280;8746;49.230;9.220;2023-06-22T05:36:12;99815.34;;;20.49;100.00
17260;BME280;8746;49.230;9.220;2023-06-22T05:38:38;99808.03;;;20.51;100.00
17260;BME280;8746;49.230;9.220;2023-06-22T05:41:04;99809.53;;;20.65;100.00
17260;BME280;8746;49.230;9.220;2023-06-22T05:43:29;99812.78;;;20.69;100.00
17260;BME280;8746;49.230;9.220;2023-06-22T05:45:55;99808.16;;;20.71;100.00
17260;BME280;8746;49.230;9.220;2023-06-22T05:48:20;99809.19;;;20.91;100.00
17260;BME280;8746;49.230;9.220;2023-06-22T05:50:45;99805.56;;;21.02;100.00
17260;BME280;8746;49.230;9.220;2023-06-22T05:53:11;99799.56;;;21.09;100.00
17260;BME280;8746;49.230;9.220;2023-06-22T05:55:36;99805.66;;;21.21;100.00
17260;BME280;8746;49.230;9.220;2023-06-22T05:58:02;99798.91;;;21.27;100.00
17260;BME280;8746;49.230;9.220;2023-06-22T06:00:28;99806.28;;;21.35;100.00
17260;BME280;8746;49.230;9.220;2023-06-22T06:02:53;99801.53;;;21.48;100.00
17260;BME280;8746;49.230;9.220;2023-06-22T06:05:19;99799.38;;;21.63;99.78
17260;BME280;8746;49.230;9.220;2023-06-22T06:07:45;99796.28;;;21.77;99.50
17260;BME280;8746;49.230;9.220;2023-06-22T06:10:10;99800.25;;;21.73;99.96
17260;BME280;8746;49.230;9.220;2023-06-22T06:12:36;99803.38;;;21.88;99.06
17260;BME280;8746;49.230;9.220;2023-06-22T06:15:02;99793.78;;;21.96;97.07
17260;BME280;8746;49.230;9.220;2023-06-22T06:17:28;99787.84;;;22.12;95.40
17260;BME280;8746;49.230;9.220;2023-06-22T06:19:53;99782.47;;;22.02;94.46
17260;BME280;8746;49.230;9.220;2023-06-22T06:22:18;99790.44;;;22.23;95.32
17260;BME280;8746;49.230;9.220;2023-06-22T06:24:45;99784.91;;;22.24;93.66
17260;BME280;8746;49.230;9.220;2023-06-22T06:27:11;99795.34;;;22.18;94.79
17260;BME280;8746;49.230;9.220;2023-06-22T06:29:36;99784.38;;;22.40;93.94
17260;BME280;8746;49.230;9.220;2023-06-22T06:32:01;99787.19;;;22.49;92.89
17260;BME280;8746;49.230;9.220;2023-06-22T06:34:27;99786.06;;;22.51;91.99
17260;BME280;8746;49.230;9.220;2023-06-22T06:36:52;99782.47;;;22.70;88.69
17260;BME280;8746;49.230;9.220;2023-06-22T06:39:17;99786.66;;;22.93;89.31
17260;BME280;8746;49.230;9.220;2023-06-22T06:41:43;99788.50;;;23.02;87.96
17260;BME280;8746;49.230;9.220;2023-06-22T06:44:08;99786.13;;;22.99;85.28
17260;BME280;8746;49.230;9.220;2023-06-22T06:46:34;99786.09;;;23.09;87.01
17260;BME280;8746;49.230;9.220;2023-06-22T06:48:59;99787.19;;;23.06;85.60
17260;BME280;8746;49.230;9.220;2023-06-22T06:51:24;99787.59;;;23.31;87.23
17260;BME280;8746;49.230;9.220;2023-06-22T06:53:50;99783.44;;;23.36;86.13
17260;BME280;8746;49.230;9.220;2023-06-22T06:56:16;99792.19;;;23.48;86.03
17260;BME280;8746;49.230;9.220;2023-06-22T06:58:41;99794.13;;;23.56;85.35
17260;BME280;8746;49.230;9.220;2023-06-22T07:01:07;99803.00;;;23.66;84.22
17260;BME280;8746;49.230;9.220;2023-06-22T07:03:33;99795.34;;;23.90;84.12
17260;BME280;8746;49.230;9.220;2023-06-22T07:05:58;99794.22;;;23.92;82.81
17260;BME280;8746;49.230;9.220;2023-06-22T07:08:24;99777.13;;;24.01;81.29
17260;BME280;8746;49.230;9.220;2023-06-22T07:10:49;99767.06;;;24.04;79.75
17260;BME280;8746;49.230;9.220;2023-06-22T07:13:14;99757.16;;;24.04;79.93
17260;BME280;8746;49.230;9.220;2023-06-22T07:15:40;99757.59;;;24.17;81.12
17260;BME280;8746;49.230;9.220;2023-06-22T07:18:05;99750.66;;;24.33;78.98
17260;BME280;8746;49.230;9.220;2023-06-22T07:20:31;99751.88;;;24.39;76.72
17260;BME280;8746;49.230;9.220;2023-06-22T07:22:56;99743.34;;;24.43;77.62
17260;BME280;8746;49.230;9.220;2023-06-22T07:25:21;99731.66;;;24.61;76.17
17260;BME280;8746;49.230;9.220;2023-06-22T07:30:22;99732.41;;;24.71;76.10
17260;BME280;8746;49.230;9.220;2023-06-22T07:32:48;99734.50;;;24.77;74.35
17260;BME280;8746;49.230;9.220;2023-06-22T07:35:14;99730.25;;;24.75;74.22
17260;BME280;8746;49.230;9.220;2023-06-22T07:37:41;99721.91;;;24.86;75.34
17260;BME280;8746;49.230;9.220;2023-06-22T07:40:07;99718.38;;;24.94;73.24
17260;BME280;8746;49.230;9.220;2023-06-22T07:42:33;99722.31;;;25.00;71.85
17260;BME280;8746;49.230;9.220;2023-06-22T07:44:58;99707.78;;;25.01;72.11
17260;BME280;8746;49.230;9.220;2023-06-22T07:47:23;99706.00;;;25.09;73.56
17260;BME280;8746;49.230;9.220;2023-06-22T07:49:53;99706.41;;;25.31;73.59
17260;BME280;8746;49.230;9.220;2023-06-22T07:52:20;99701.34;;;25.28;71.84
17260;BME280;8746;49.230;9.220;2023-06-22T07:54:46;99706.16;;;25.42;70.94
17260;BME280;8746;49.230;9.220;2023-06-22T07:57:11;99709.34;;;25.38;70.59
17260;BME280;8746;49.230;9.220;2023-06-22T07:59:36;99712.06;;;25.46;70.81
17260;BME280;8746;49.230;9.220;2023-06-22T08:02:02;99713.59;;;25.57;69.32
17260;BME280;8746;49.230;9.220;2023-06-22T08:04:29;99703.50;;;25.84;72.40
17260;BME280;8746;49.230;9.220;2023-06-22T08:06:56;99711.28;;;25.79;70.28
17260;BME280;8746;49.230;9.220;2023-06-22T08:09:21;99706.53;;;25.56;69.45
17260;BME280;8746;49.230;9.220;2023-06-22T08:11:46;99703.00;;;25.80;69.60
17260;BME280;8746;49.230;9.220;2023-06-22T08:14:13;99690.72;;;26.11;67.75
17260;BME280;8746;49.230;9.220;2023-06-22T08:16:38;99693.91;;;26.06;66.29
17260;BME280;8746;49.230;9.220;2023-06-22T08:19:03;99689.06;;;26.10;65.22
17260;BME280;8746;49.230;9.220;2023-06-22T08:21:29;99689.53;;;26.21;66.68
17260;BME280;8746;49.230;9.220;2023-06-22T08:23:54;99690.88;;;26.34;64.53
17260;BME280;8746;49.230;9.220;2023-06-22T08:26:19;99684.28;;;26.45;64.11
17260;BME280;8746;49.230;9.220;2023-06-22T08:28:45;99692.03;;;26.56;63.63
17260;BME280;8746;49.230;9.220;2023-06-22T08:31:10;99686.66;;;26.48;62.48
17260;BME280;8746;49.230;9.220;2023-06-22T08:33:37;99685.59;;;26.57;63.20
17260;BME280;8746;49.230;9.220;2023-06-22T08:36:03;99691.69;;;26.76;62.70
17260;BME280;8746;49.230;9.220;2023-06-22T08:38:31;99700.06;;;26.97;62.07
17260;BME280;8746;49.230;9.220;2023-06-22T08:40:56;99713.28;;;27.00;62.21
17260;BME280;8746;49.230;9.220;2023-06-22T08:43:22;99709.69;;;27.00;59.25
17260;BME280;8746;49.230;9.220;2023-06-22T08:45:47;99702.72;;;27.14;58.84
17260;BME280;8746;49.230;9.220;2023-06-22T08:48:12;99705.13;;;27.09;59.56
17260;BME280;8746;49.230;9.220;2023-06-22T08:50:38;99707.03;;;27.31;59.86
17260;BME280;8746;49.230;9.220;2023-06-22T08:53:05;99695.13;;;27.49;59.21
17260;BME280;8746;49.230;9.220;2023-06-22T08:55:31;99700.56;;;27.72;57.50
17260;BME280;8746;49.230;9.220;2023-06-22T08:57:57;99700.28;;;27.90;57.02
17260;BME280;8746;49.230;9.220;2023-06-22T09:00:22;99706.78;;;27.58;57.20
17260;BME280;8746;49.230;9.220;2023-06-22T09:02:48;99715.69;;;27.66;56.65
17260;BME280;8746;49.230;9.220;2023-06-22T09:05:14;99718.97;;;27.85;56.37
17260;BME280;8746;49.230;9.220;2023-06-22T09:07:39;99704.63;;;28.23;55.55
17260;BME280;8746;49.230;9.220;2023-06-22T09:10:06;99714.31;;;28.40;54.34
17260;BME280;8746;49.230;9.220;2023-06-22T09:12:32;99722.72;;;28.45;53.37
17260;BME280;8746;49.230;9.220;2023-06-22T09:15:01;99730.97;;;28.37;53.25
17260;BME280;8746;49.230;9.220;2023-06-22T09:17:27;99734.63;;;28.21;55.52
17260;BME280;8746;49.230;9.220;2023-06-22T09:19:53;99741.38;;;28.49;54.36
17260;BME280;8746;49.230;9.220;2023-06-22T09:22:18;99761.66;;;28.76;54.93
17260;BME280;8746;49.230;9.220;2023-06-22T09:24:43;99768.50;;;29.02;51.85
17260;BME280;8746;49.230;9.220;2023-06-22T09:27:09;99756.16;;;29.14;52.22
17260;BME280;8746;49.230;9.220;2023-06-22T09:29:34;99724.84;;;29.48;51.12
17260;BME280;8746;49.230;9.220;2023-06-22T09:32:00;99723.53;;;29.14;51.02
17260;BME280;8746;49.230;9.220;2023-06-22T09:34:25;99703.06;;;28.97;50.58
17260;BME280;8746;49.230;9.220;2023-06-22T09:36:51;99717.56;;;29.49;52.48
17260;BME280;8746;49.230;9.220;2023-06-22T09:39:18;99710.13;;;29.57;50.53
17260;BME280;8746;49.230;9.220;2023-06-22T09:41:43;99695.88;;;29.55;50.48
17260;BME280;8746;49.230;9.220;2023-06-22T09:44:08;99680.91;;;29.45;50.51
17260;BME280;8746;49.230;9.220;2023-06-22T09:46:34;99696.53;;;29.57;51.69
17260;BME280;8746;49.230;9.220;2023-06-22T09:48:59;99678.53;;;29.05;51.21
17260;BME280;8746;49.230;9.220;2023-06-22T09:51:24;99661.88;;;28.93;51.56
17260;BME280;8746;49.230;9.220;2023-06-22T09:53:50;99657.53;;;28.54;51.52
17260;BME280;8746;49.230;9.220;2023-06-22T09:56:16;99644.78;;;28.54;53.34
17260;BME280;8746;49.230;9.220;2023-06-22T09:58:42;99634.28;;;28.74;52.58
17260;BME280;8746;49.230;9.220;2023-06-22T10:01:08;99640.44;;;28.83;53.50
17260;BME280;8746;49.230;9.220;2023-06-22T10:03:34;99649.78;;;28.95;52.82
17260;BME280;8746;49.230;9.220;2023-06-22T10:05:59;99637.66;;;29.28;53.21
17260;BME280;8746;49.230;9.220;2023-06-22T10:08:24;99642.94;;;29.51;52.77
17260;BME280;8746;49.230;9.220;2023-06-22T10:10:50;99643.53;;;29.47;50.08
17260;BME280;8746;49.230;9.220;2023-06-22T10:13:15;99634.13;;;29.49;49.28
17260;BME280;8746;49.230;9.220;2023-06-22T10:15:41;99638.66;;;30.07;49.87
17260;BME280;8746;49.230;9.220;2023-06-22T10:18:07;99649.84;;;30.19;49.35
17260;BME280;8746;49.230;9.220;2023-06-22T10:20:33;99632.53;;;30.27;48.93
17260;BME280;8746;49.230;9.220;2023-06-22T10:22:58;99641.88;;;30.74;48.20
17260;BME280;8746;49.230;9.220;2023-06-22T10:25:24;99645.97;;;31.54;46.83
17260;BME280;8746;49.230;9.220;2023-06-22T10:27:50;99649.94;;;31.44;46.05
17260;BME280;8746;49.230;9.220;2023-06-22T10:30:15;99635.66;;;31.42;46.40
17260;BME280;8746;49.230;9.220;2023-06-22T10:32:42;99648.84;;;31.32;47.65
17260;BME280;8746;49.230;9.220;2023-06-22T10:35:10;99643.56;;;31.17;46.35
17260;BME280;8746;49.230;9.220;2023-06-22T10:37:38;99636.06;;;30.20;48.73
17260;BME280;8746;49.230;9.220;2023-06-22T10:40:04;99628.44;;;30.09;48.55
17260;BME280;8746;49.230;9.220;2023-06-22T10:42:30;99610.63;;;29.85;48.25
17260;BME280;8746;49.230;9.220;2023-06-22T10:44:55;99609.22;;;29.67;49.25
17260;BME280;8746;49.230;9.220;2023-06-22T10:47:25;99611.81;;;29.76;50.57
17260;BME280;8746;49.230;9.220;2023-06-22T10:49:50;99601.56;;;30.28;49.36
17260;BME280;8746;49.230;9.220;2023-06-22T10:52:15;99601.00;;;30.67;50.21
17260;BME280;8746;49.230;9.220;2023-06-22T10:54:41;99603.22;;;30.50;49.27
17260;BME280;8746;49.230;9.220;2023-06-22T10:57:06;99592.44;;;30.07;48.88
17260;BME280;8746;49.230;9.220;2023-06-22T10:59:32;99591.28;;;30.23;50.44
17260;BME280;8746;49.230;9.220;2023-06-22T11:01:58;99575.03;;;29.80;49.14
17260;BME280;8746;49.230;9.220;2023-06-22T11:04:23;99571.53;;;30.08;49.18
17260;BME280;8746;49.230;9.220;2023-06-22T11:06:49;99577.00;;;30.14;48.53
17260;BME280;8746;49.230;9.220;2023-06-22T11:09:15;99569.56;;;31.13;46.90
17260;BME280;8746;49.230;9.220;2023-06-22T11:11:45;99571.31;;;31.35;46.67
17260;BME280;8746;49.230;9.220;2023-06-22T11:14:11;99581.22;;;31.69;46.58
17260;BME280;8746;49.230;9.220;2023-06-22T11:16:36;99573.00;;;31.62;46.15
17260;BME280;8746;49.230;9.220;2023-06-22T11:19:01;99575.94;;;31.54;45.86
17260;BME280;8746;49.230;9.220;2023-06-22T11:21:28;99576.53;;;31.43;45.58
17260;BME280;8746;49.230;9.220;2023-06-22T11:23:53;99561.63;;;31.25;47.10
17260;BME280;8746;49.230;9.220;2023-06-22T11:26:19;99558.06;;;30.63;47.81
17260;BME280;8746;49.230;9.220;2023-06-22T11:28:46;99564.16;;;30.72;48.70
17260;BME280;8746;49.230;9.220;2023-06-22T11:31:12;99562.47;;;30.64;48.14
17260;BME280;8746;49.230;9.220;2023-06-22T11:33:37;99557.41;;;30.61;49.78
17260;BME280;8746;49.230;9.220;2023-06-22T11:36:03;99553.44;;;30.63;49.69
17260;BME280;8746;49.230;9.220;2023-06-22T11:38:28;99552.44;;;30.71;48.23
17260;BME280;8746;49.230;9.220;2023-06-22T11:40:54;99543.94;;;31.01;49.33
17260;BME280;8746;49.230;9.220;2023-06-22T11:43:19;99536.47;;;31.16;46.95
17260;BME280;8746;49.230;9.220;2023-06-22T11:45:44;99539.59;;;31.13;46.70
17260;BME280;8746;49.230;9.220;2023-06-22T11:48:10;99543.41;;;30.64;47.43
17260;BME280;8746;49.230;9.220;2023-06-22T11:50:35;99545.25;;;30.57;48.26
17260;BME280;8746;49.230;9.220;2023-06-22T11:53:02;99547.16;;;30.63;48.67
17260;BME280;8746;49.230;9.220;2023-06-22T11:55:28;99552.22;;;30.73;49.62
17260;BME280;8746;49.230;9.220;2023-06-22T11:57:57;99547.97;;;30.57;47.31
17260;BME280;8746;49.230;9.220;2023-06-22T12:00:25;99546.69;;;30.52;48.98
17260;BME280;8746;49.230;9.220;2023-06-22T12:02:51;99543.91;;;30.39;49.41
17260;BME280;8746;49.230;9.220;2023-06-22T12:05:19;99544.81;;;30.53;48.69
17260;BME280;8746;49.230;9.220;2023-06-22T12:07:45;99548.00;;;30.63;48.63
17260;BME280;8746;49.230;9.220;2023-06-22T12:10:11;99549.47;;;30.66;50.03
17260;BME280;8746;49.230;9.220;2023-06-22T12:12:36;99541.22;;;30.52;48.89
17260;BME280;8746;49.230;9.220;2023-06-22T12:15:01;99519.88;;;30.49;49.17
17260;BME280;8746;49.230;9.220;2023-06-22T12:17:29;99501.38;;;30.38;47.74
17260;BME280;8746;49.230;9.220;2023-06-22T12:19:54;99500.91;;;30.28;48.62
17260;BME280;8746;49.230;9.220;2023-06-22T12:22:20;99513.47;;;30.29;51.27
17260;BME280;8746;49.230;9.220;2023-06-22T12:24:45;99521.03;;;30.33;49.88
17260;BME280;8746;49.230;9.220;2023-06-22T12:27:10;99526.19;;;30.21;51.49
17260;BME280;8746;49.230;9.220;2023-06-22T12:29:36;99527.56;;;30.04;50.12
17260;BME280;8746;49.230;9.220;2023-06-22T12:32:01;99532.50;;;29.94;51.22
17260;BME280;8746;49.230;9.220;2023-06-22T12:34:27;99534.94;;;29.88;51.99
17260;BME280;8746;49.230;9.220;2023-06-22T12:36:52;99539.03;;;29.78;51.42
17260;BME280;8746;49.230;9.220;2023-06-22T12:39:19;99545.69;;;29.68;52.17
17260;BME280;8746;49.230;9.220;2023-06-22T12:41:45;99555.91;;;29.66;53.31
17260;BME280;8746;49.230;9.220;2023-06-22T12:44:10;99568.22;;;29.62;54.32
17260;BME280;8746;49.230;9.220;2023-06-22T12:46:36;99575.03;;;29.80;53.74
17260;BME280;8746;49.230;9.220;2023-06-22T12:49:03;99581.38;;;29.87;52.99
17260;BME280;8746;49.230;9.220;2023-06-22T12:51:29;99583.44;;;30.06;52.55
17260;BME280;8746;49.230;9.220;2023-06-22T12:53:54;99573.19;;;30.37;52.52
17260;BME280;8746;49.230;9.220;2023-06-22T12:56:20;99576.06;;;30.64;51.31
17260;BME280;8746;49.230;9.220;2023-06-22T12:58:45;99568.88;;;31.05;51.36
17260;BME280;8746;49.230;9.220;2023-06-22T13:01:11;99562.50;;;31.32;51.82
17260;BME280;8746;49.230;9.220;2023-06-22T13:03:36;99559.19;;;31.71;49.48
17260;BME280;8746;49.230;9.220;2023-06-22T13:06:01;99561.19;;;31.22;47.92
17260;BME280;8746;49.230;9.220;2023-06-22T13:08:29;99545.72;;;31.42;48.91